createdAt,value
2022-07-31T00:02:46.824Z,16.63
2022-07-31T00:05:50.495Z,17.53
2022-07-31T00:08:54.170Z,17.07
2022-07-31T00:11:57.815Z,16.03
2022-07-31T00:15:01.728Z,16.63
2022-07-31T00:18:08.821Z,16.10
2022-07-31T00:21:14.127Z,15.40
2022-07-31T00:24:17.695Z,15.07
2022-07-31T00:27:21.334Z,15.80
2022-07-31T00:30:25.025Z,14.53
2022-07-31T00:33:30.076Z,15.67
2022-07-31T00:36:33.901Z,17.20
2022-07-31T00:39:38.514Z,18.00
2022-07-31T00:42:42.433Z,17.33
2022-07-31T00:45:47.026Z,17.33
2022-07-31T00:49:03.821Z,14.47
2022-07-31T00:52:08.407Z,15.97
2022-07-31T00:55:12.258Z,14.50
2022-07-31T00:58:15.995Z,14.03
2022-07-31T01:01:19.601Z,15.83
2022-07-31T01:04:26.309Z,16.63
2022-07-31T01:07:30.978Z,15.73
2022-07-31T01:10:49.636Z,14.43
2022-07-31T01:13:58.009Z,13.97
2022-07-31T01:17:04.980Z,15.33
2022-07-31T01:20:14.073Z,20.10
2022-07-31T01:23:50.145Z,12.67
2022-07-31T01:27:05.615Z,12.77
2022-07-31T01:30:11.725Z,14.37
2022-07-31T01:33:21.327Z,13.13
2022-07-31T01:36:34.690Z,13.80
2022-07-31T01:39:41.977Z,14.63
2022-07-31T01:43:08.455Z,13.37
2022-07-31T01:46:18.279Z,17.60
2022-07-31T01:49:25.085Z,12.97
2022-07-31T01:52:33.677Z,12.90
2022-07-31T01:56:01.871Z,12.80
2022-07-31T01:59:20.572Z,15.27
2022-07-31T02:02:31.167Z,13.67
2022-07-31T02:05:38.150Z,12.10
2022-07-31T02:08:45.020Z,13.87
2022-07-31T02:11:54.663Z,11.67
2022-07-31T02:14:59.619Z,13.57
2022-07-31T02:18:06.147Z,16.97
2022-07-31T02:21:10.285Z,13.60
2022-07-31T02:24:14.520Z,14.37
2022-07-31T02:27:57.308Z,14.70
2022-07-31T02:30:48.052Z,16.80
2022-07-31T02:33:54.855Z,16.33
2022-07-31T02:37:01.512Z,15.33
2022-07-31T02:40:09.056Z,16.00
2022-07-31T02:43:14.229Z,14.43
2022-07-31T02:46:19.334Z,19.03
2022-07-31T02:49:25.004Z,13.73
2022-07-31T02:52:29.795Z,13.50
2022-07-31T02:55:34.771Z,14.20
2022-07-31T02:58:41.965Z,17.10
2022-07-31T03:01:45.811Z,13.87
2022-07-31T03:04:51.419Z,15.70
2022-07-31T03:07:55.076Z,17.23
2022-07-31T03:10:58.911Z,14.77
2022-07-31T03:14:05.659Z,17.47
2022-07-31T03:17:11.546Z,17.00
2022-07-31T03:20:18.121Z,15.30
2022-07-31T03:23:24.958Z,18.73
2022-07-31T03:26:29.753Z,14.47
2022-07-31T03:29:43.202Z,14.90
2022-07-31T03:32:47.502Z,16.77
2022-07-31T03:35:53.405Z,14.90
2022-07-31T03:38:57.161Z,14.87
2022-07-31T03:42:04.028Z,13.13
2022-07-31T03:45:10.881Z,16.70
2022-07-31T03:48:15.501Z,13.90
2022-07-31T03:51:20.945Z,13.07
2022-07-31T03:54:24.610Z,15.17
2022-07-31T03:57:31.508Z,13.60
2022-07-31T04:00:38.746Z,13.73
2022-07-31T04:03:42.388Z,13.97
2022-07-31T04:06:47.355Z,12.90
2022-07-31T04:09:51.509Z,18.20
2022-07-31T04:12:55.753Z,13.90
2022-07-31T04:15:59.443Z,14.33
2022-07-31T04:19:03.035Z,13.77
2022-07-31T04:22:09.227Z,13.60
2022-07-31T04:25:13.039Z,14.20
2022-07-31T04:28:16.732Z,13.93
2022-07-31T04:31:20.375Z,13.47
2022-07-31T04:34:24.089Z,13.10
2022-07-31T04:37:29.020Z,12.93
2022-07-31T04:40:32.665Z,14.23
2022-07-31T04:43:36.299Z,12.13
2022-07-31T04:46:40.083Z,15.87
2022-07-31T04:49:43.805Z,13.77
2022-07-31T04:52:48.911Z,14.40
2022-07-31T04:56:06.423Z,14.60
2022-07-31T04:59:13.114Z,16.83
2022-07-31T05:02:16.906Z,15.50
2022-07-31T05:05:20.875Z,16.00
2022-07-31T05:08:25.895Z,15.30
2022-07-31T05:11:29.819Z,15.60
2022-07-31T05:14:33.440Z,18.90
2022-07-31T05:17:37.198Z,17.20
2022-07-31T05:20:40.855Z,16.67
2022-07-31T05:23:47.846Z,17.40
2022-07-31T05:26:51.495Z,15.40
2022-07-31T05:29:55.296Z,17.60
2022-07-31T05:32:59.486Z,17.90
2022-07-31T05:36:04.490Z,15.50
2022-07-31T05:39:09.784Z,18.50
2022-07-31T05:42:13.488Z,18.70
2022-07-31T05:45:17.092Z,17.53
2022-07-31T05:48:20.771Z,20.70
2022-07-31T05:51:24.366Z,17.67
2022-07-31T05:54:29.432Z,17.30
2022-07-31T05:57:34.335Z,18.63
2022-07-31T06:00:39.573Z,19.43
2022-07-31T06:03:51.587Z,16.77
2022-07-31T06:06:56.224Z,16.73
2022-07-31T06:10:02.559Z,17.07
2022-07-31T06:13:06.703Z,14.37
2022-07-31T06:16:14.786Z,13.93
2022-07-31T06:19:24.546Z,14.37
2022-07-31T06:22:28.541Z,13.23
2022-07-31T06:25:35.561Z,14.37
2022-07-31T06:28:47.663Z,12.67
2022-07-31T06:31:52.715Z,11.80
2022-07-31T06:34:56.364Z,11.17
2022-07-31T06:37:59.918Z,7.73
2022-07-31T06:41:04.983Z,6.13
2022-07-31T06:44:09.059Z,6.83
2022-07-31T06:47:15.981Z,7.70
2022-07-31T06:50:20.116Z,7.07
2022-07-31T06:53:23.775Z,6.30
2022-07-31T06:56:28.979Z,4.80
2022-07-31T06:59:39.925Z,5.00
2022-07-31T07:02:44.446Z,4.63
2022-07-31T07:05:48.135Z,6.37
2022-07-31T07:08:52.364Z,6.73
2022-07-31T07:11:57.430Z,6.10
2022-07-31T07:15:01.042Z,4.53
2022-07-31T07:18:04.761Z,8.17
2022-07-31T07:21:08.445Z,4.13
2022-07-31T07:24:12.952Z,5.00
2022-07-31T07:27:17.970Z,4.60
2022-07-31T07:30:25.232Z,5.17
2022-07-31T07:33:40.753Z,8.13
2022-07-31T07:36:45.662Z,5.10
2022-07-31T07:39:49.427Z,5.43
2022-07-31T07:42:54.550Z,6.27
2022-07-31T07:45:58.241Z,5.57
2022-07-31T07:49:02.823Z,7.30
2022-07-31T07:52:06.729Z,6.13
2022-07-31T07:55:12.599Z,6.70
2022-07-31T07:58:17.893Z,5.90
2022-07-31T08:01:21.528Z,5.80
2022-07-31T08:04:25.305Z,7.00
2022-07-31T08:07:42.453Z,7.00
2022-07-31T08:10:47.194Z,6.30
2022-07-31T08:13:52.355Z,6.93
2022-07-31T08:16:57.021Z,8.90
2022-07-31T08:20:01.292Z,7.20
2022-07-31T08:23:04.972Z,8.90
2022-07-31T08:26:09.554Z,7.30
2022-07-31T08:29:14.606Z,7.93
2022-07-31T08:32:19.372Z,5.87
2022-07-31T08:35:22.995Z,5.90
2022-07-31T08:38:26.742Z,8.27
2022-07-31T08:41:30.537Z,8.70
2022-07-31T08:44:37.603Z,6.93
2022-07-31T08:47:48.288Z,7.30
2022-07-31T08:50:54.801Z,5.97
2022-07-31T08:54:00.472Z,6.40
2022-07-31T08:57:05.307Z,5.77
2022-07-31T09:00:21.707Z,4.83
2022-07-31T09:03:25.752Z,3.70
2022-07-31T09:06:29.398Z,5.60
2022-07-31T09:09:50.943Z,5.37
2022-07-31T09:12:57.127Z,3.63
2022-07-31T09:16:03.727Z,3.30
2022-07-31T09:19:52.350Z,5.37
2022-07-31T09:22:33.949Z,3.53
2022-07-31T09:25:38.023Z,4.60
2022-07-31T09:28:44.926Z,4.00
2022-07-31T09:31:49.953Z,2.33
2022-07-31T09:34:53.672Z,5.70
2022-07-31T09:37:57.369Z,2.40
2022-07-31T09:41:26.806Z,5.37
2022-07-31T09:44:42.176Z,2.83
2022-07-31T09:47:48.491Z,4.73
2022-07-31T09:50:55.933Z,6.10
2022-07-31T09:53:59.744Z,3.80
2022-07-31T09:57:13.463Z,5.17
2022-07-31T10:00:17.608Z,4.43
2022-07-31T10:03:25.851Z,3.50
2022-07-31T10:06:35.952Z,2.73
2022-07-31T10:09:42.120Z,3.50
2022-07-31T10:12:52.293Z,6.57
2022-07-31T10:16:00.977Z,3.97
2022-07-31T10:19:11.574Z,3.47
2022-07-31T10:22:21.328Z,4.20
2022-07-31T10:25:29.563Z,4.83
2022-07-31T10:28:34.499Z,4.47
2022-07-31T10:31:38.916Z,3.80
2022-07-31T10:34:44.528Z,4.47
2022-07-31T10:38:00.179Z,2.67
2022-07-31T10:41:22.009Z,4.73
2022-07-31T10:44:38.730Z,3.83
2022-07-31T10:47:53.776Z,9.47
2022-07-31T10:51:07.406Z,3.87
2022-07-31T10:54:11.646Z,5.00
2022-07-31T10:57:24.228Z,3.47
2022-07-31T11:00:30.590Z,4.17
2022-07-31T11:03:41.907Z,3.43
2022-07-31T11:06:48.707Z,3.27
2022-07-31T11:09:53.167Z,5.17
2022-07-31T11:13:05.167Z,3.23
2022-07-31T11:16:08.979Z,3.23
2022-07-31T11:19:13.488Z,3.97
2022-07-31T11:22:31.454Z,3.20
2022-07-31T11:25:38.851Z,3.43
2022-07-31T11:28:45.993Z,4.80
2022-07-31T11:31:49.639Z,4.67
2022-07-31T11:34:55.266Z,4.63
2022-07-31T11:38:01.316Z,4.43
2022-07-31T11:41:06.084Z,5.20
2022-07-31T11:44:10.464Z,4.80
2022-07-31T11:47:55.991Z,3.90
2022-07-31T11:50:42.192Z,2.57
2022-07-31T11:53:56.679Z,2.70
2022-07-31T11:57:01.679Z,3.27
2022-07-31T12:00:29.132Z,4.07
2022-07-31T12:03:36.502Z,4.00
2022-07-31T12:06:40.594Z,3.23
2022-07-31T12:10:00.738Z,4.87
2022-07-31T12:13:15.612Z,2.53
2022-07-31T12:16:20.026Z,3.93
2022-07-31T12:19:29.404Z,3.47
2022-07-31T12:22:32.968Z,4.27
2022-07-31T12:25:46.973Z,5.50
2022-07-31T12:29:00.134Z,3.00
2022-07-31T12:32:05.236Z,3.97
2022-07-31T12:35:09.792Z,2.17
2022-07-31T12:38:40.798Z,3.27
2022-07-31T12:41:47.829Z,3.80
2022-07-31T12:44:53.618Z,3.23
2022-07-31T12:47:57.391Z,4.10
2022-07-31T12:51:01.529Z,5.73
2022-07-31T12:54:06.347Z,4.07
2022-07-31T12:57:11.603Z,4.23
2022-07-31T13:00:18.325Z,3.43
2022-07-31T13:03:22.082Z,6.00
2022-07-31T13:06:28.076Z,5.70
2022-07-31T13:09:32.027Z,7.07
2022-07-31T13:12:37.059Z,7.10
2022-07-31T13:15:40.782Z,7.50
2022-07-31T13:18:44.466Z,8.23
2022-07-31T13:21:50.259Z,9.50
2022-07-31T13:24:53.967Z,8.17
2022-07-31T13:27:59.136Z,9.47
2022-07-31T13:31:03.325Z,10.17
2022-07-31T13:34:07.074Z,10.13
2022-07-31T13:37:10.741Z,10.37
2022-07-31T13:40:14.847Z,10.93
2022-07-31T13:43:19.690Z,8.80
2022-07-31T13:46:24.874Z,10.63
2022-07-31T13:49:32.199Z,8.43
2022-07-31T13:52:36.006Z,11.33
2022-07-31T13:55:39.875Z,10.27
2022-07-31T13:58:45.256Z,8.37
2022-07-31T14:02:04.241Z,8.97
2022-07-31T14:05:10.079Z,8.37
2022-07-31T14:08:33.108Z,8.00
2022-07-31T14:11:39.965Z,9.07
2022-07-31T14:14:44.973Z,10.13
2022-07-31T14:17:48.645Z,10.17
2022-07-31T14:20:52.847Z,10.87
2022-07-31T14:23:57.203Z,9.70
2022-07-31T14:27:00.829Z,12.23
2022-07-31T14:30:14.033Z,13.47
2022-07-31T14:33:23.948Z,12.97
2022-07-31T14:36:27.567Z,10.53
2022-07-31T14:39:31.213Z,12.27
2022-07-31T14:42:34.961Z,12.40
2022-07-31T14:45:51.707Z,10.53
2022-07-31T14:48:55.640Z,16.80
2022-07-31T14:51:59.246Z,13.33
2022-07-31T14:55:04.045Z,14.60
2022-07-31T14:58:07.988Z,12.93
2022-07-31T15:01:16.016Z,12.90
2022-07-31T15:04:19.811Z,12.83
2022-07-31T15:07:45.821Z,13.07
2022-07-31T15:10:47.252Z,16.13
2022-07-31T15:13:50.906Z,13.63
2022-07-31T15:16:56.096Z,14.47
2022-07-31T15:20:00.958Z,16.43
2022-07-31T15:23:05.290Z,14.67
2022-07-31T15:26:09.176Z,13.87
2022-07-31T15:29:12.875Z,16.57
2022-07-31T15:32:18.073Z,16.33
2022-07-31T15:35:21.888Z,15.90
2022-07-31T15:38:25.695Z,18.70
2022-07-31T15:41:29.350Z,19.83
2022-07-31T15:44:36.163Z,20.90
2022-07-31T15:47:43.227Z,22.07
2022-07-31T15:50:47.090Z,20.50
2022-07-31T15:53:50.790Z,22.07
2022-07-31T15:56:54.445Z,24.40
2022-07-31T15:59:58.171Z,25.00
2022-07-31T16:03:04.563Z,27.77
2022-07-31T16:06:08.403Z,25.80
2022-07-31T16:09:19.676Z,26.57
2022-07-31T16:12:24.063Z,26.60
2022-07-31T16:15:27.707Z,27.27
2022-07-31T16:18:33.219Z,27.43
2022-07-31T16:21:37.040Z,28.10
2022-07-31T16:24:41.861Z,28.50
2022-07-31T16:27:45.499Z,30.60
2022-07-31T16:30:49.161Z,32.00
2022-07-31T16:33:54.187Z,31.27
2022-07-31T16:36:57.853Z,29.77
2022-07-31T16:40:01.669Z,24.00
2022-07-31T16:43:48.684Z,20.93
2022-07-31T16:46:33.164Z,20.60
2022-07-31T16:49:38.744Z,19.50
2022-07-31T16:52:42.480Z,19.63
2022-07-31T16:56:00.825Z,21.23
2022-07-31T16:59:07.067Z,20.27
2022-07-31T17:02:11.503Z,23.77
2022-07-31T17:05:17.257Z,21.13
2022-07-31T17:08:20.934Z,19.37
2022-07-31T17:11:24.679Z,20.07
2022-07-31T17:14:29.269Z,20.57
2022-07-31T17:17:33.011Z,22.07
2022-07-31T17:20:39.444Z,22.33
2022-07-31T17:23:51.066Z,20.87
2022-07-31T17:26:55.351Z,22.37
2022-07-31T17:29:58.988Z,21.80
2022-07-31T17:33:02.675Z,21.47
2022-07-31T17:36:08.512Z,21.07
2022-07-31T17:39:12.392Z,21.23
2022-07-31T17:42:18.126Z,19.43
2022-07-31T17:45:26.856Z,19.77
2022-07-31T17:48:51.055Z,20.73
2022-07-31T17:51:59.831Z,19.60
2022-07-31T17:55:04.631Z,18.07
2022-07-31T17:58:08.920Z,18.53
2022-07-31T18:01:12.780Z,20.80
2022-07-31T18:04:17.078Z,19.90
2022-07-31T18:07:24.207Z,19.07
2022-07-31T18:10:51.808Z,19.20
2022-07-31T18:13:54.147Z,19.70
2022-07-31T18:16:59.192Z,19.77
2022-07-31T18:20:05.186Z,19.13
2022-07-31T18:23:10.446Z,18.03
2022-07-31T18:26:14.152Z,17.33
2022-07-31T18:29:18.890Z,18.50
2022-07-31T18:32:22.816Z,18.80
2022-07-31T18:35:26.497Z,18.70
2022-07-31T18:38:31.667Z,19.17
2022-07-31T18:41:35.998Z,18.00
2022-07-31T18:44:39.654Z,17.90
2022-07-31T18:47:43.311Z,19.80
2022-07-31T18:51:00.122Z,18.30
2022-07-31T18:54:09.019Z,19.03
2022-07-31T18:57:12.954Z,17.90
2022-07-31T19:00:17.767Z,19.60
2022-07-31T19:03:21.486Z,18.13
2022-07-31T19:06:25.067Z,18.17
2022-07-31T19:09:30.550Z,18.47
2022-07-31T19:12:34.186Z,16.93
2022-07-31T19:15:38.460Z,18.50
2022-07-31T19:18:42.463Z,18.10
2022-07-31T19:21:47.536Z,17.80
2022-07-31T19:24:52.615Z,18.23
2022-07-31T19:27:56.564Z,18.93
2022-07-31T19:31:01.124Z,19.63
2022-07-31T19:34:04.758Z,21.20
2022-07-31T19:37:09.780Z,19.13
2022-07-31T19:40:15.194Z,19.40
2022-07-31T19:43:20.156Z,18.90
2022-07-31T19:46:24.202Z,20.90
2022-07-31T19:49:27.892Z,20.13
2022-07-31T19:52:31.838Z,21.53
2022-07-31T19:55:37.749Z,19.67
2022-07-31T19:58:42.404Z,22.23
2022-07-31T20:01:46.100Z,19.83
2022-07-31T20:04:49.819Z,21.17
2022-07-31T20:07:53.496Z,22.07
2022-07-31T20:10:59.660Z,21.63
2022-07-31T20:14:03.373Z,23.27
2022-07-31T20:17:07.131Z,21.50
2022-07-31T20:20:15.380Z,24.20
2022-07-31T20:23:19.642Z,24.23
2022-07-31T20:26:25.135Z,23.60
2022-07-31T20:29:28.815Z,24.27
2022-07-31T20:32:33.152Z,26.70
2022-07-31T20:35:47.968Z,27.03
2022-07-31T20:38:53.535Z,30.07
2022-07-31T20:41:59.535Z,27.67
2022-07-31T20:45:03.177Z,26.50
2022-07-31T20:48:07.935Z,27.80
2022-07-31T20:51:16.061Z,26.23
2022-07-31T20:54:20.276Z,24.80
2022-07-31T20:57:40.376Z,23.53
2022-07-31T21:00:43.991Z,25.00
2022-07-31T21:03:48.043Z,23.77
2022-07-31T21:06:51.788Z,19.67
2022-07-31T21:09:55.362Z,17.87
2022-07-31T21:13:00.436Z,18.50
2022-07-31T21:16:04.915Z,16.93
2022-07-31T21:19:09.779Z,11.77
2022-07-31T21:22:13.966Z,14.10
2022-07-31T21:25:18.240Z,9.80
2022-07-31T21:28:25.228Z,9.17
2022-07-31T21:31:29.600Z,8.97
2022-07-31T21:34:33.990Z,9.23
2022-07-31T21:37:39.985Z,9.83
2022-07-31T21:40:45.267Z,10.77
2022-07-31T21:43:58.840Z,10.77
2022-07-31T21:47:04.388Z,9.93
2022-07-31T21:50:09.848Z,10.23
2022-07-31T21:53:14.499Z,10.77
2022-07-31T21:56:18.226Z,12.53
2022-07-31T21:59:23.399Z,12.17
2022-07-31T22:02:27.454Z,12.53
2022-07-31T22:05:48.636Z,10.93
2022-07-31T22:08:52.368Z,11.17
2022-07-31T22:12:01.277Z,10.87
2022-07-31T22:15:11.261Z,8.33
2022-07-31T22:18:19.625Z,8.57
2022-07-31T22:21:24.407Z,7.70
2022-07-31T22:24:28.631Z,6.13
2022-07-31T22:27:51.037Z,5.07
2022-07-31T22:30:58.448Z,4.67
2022-07-31T22:34:02.438Z,4.50
2022-07-31T22:37:07.651Z,3.70
2022-07-31T22:40:13.307Z,3.47
2022-07-31T22:44:10.200Z,3.80
2022-07-31T22:46:43.004Z,2.77
2022-07-31T22:49:47.214Z,2.87
2022-07-31T22:52:51.060Z,2.93
2022-07-31T22:55:55.178Z,2.83
2022-07-31T22:58:58.934Z,3.77
2022-07-31T23:02:04.700Z,3.07
2022-07-31T23:05:10.326Z,3.30
2022-07-31T23:08:13.932Z,3.20
2022-07-31T23:11:18.137Z,3.93
2022-07-31T23:14:22.062Z,3.10
2022-07-31T23:17:27.084Z,3.27
2022-07-31T23:20:30.766Z,3.70
2022-07-31T23:23:34.532Z,3.03
2022-07-31T23:26:38.272Z,3.47
2022-07-31T23:29:42.000Z,3.97
2022-07-31T23:32:46.991Z,3.80
2022-07-31T23:35:50.713Z,3.87
2022-07-31T23:38:54.422Z,4.37
2022-07-31T23:42:15.471Z,4.10
2022-07-31T23:45:19.130Z,4.13
2022-07-31T23:48:29.275Z,4.47
2022-07-31T23:51:33.816Z,5.17
2022-07-31T23:54:37.563Z,5.60
2022-07-31T23:57:41.396Z,6.20
